sensor_id;sensor_type;location;lat;lon;timestamp;P1;durP1;ratioP1;P2;durP2;ratioP2
3791;SDS011;1911;53.768;11.474;2024-03-23T00:54:13;25.20;;;6.20;;
3791;SDS011;1911;53.768;11.474;2024-03-23T00:56:38;16.33;;;5.50;;
3791;SDS011;1911;53.768;11.474;2024-03-23T00:59:04;21.17;;;4.30;;
3791;SDS011;1911;53.768;11.474;2024-03-23T01:01:29;13.93;;;4.77;;
3791;SDS011;1911;53.768;11.474;2024-03-23T01:03:55;21.83;;;5.03;;
3791;SDS011;1911;53.768;11.474;2024-03-23T01:06:21;22.47;;;5.00;;
3791;SDS011;1911;53.768;11.474;2024-03-23T01:08:46;20.07;;;5.23;;
3791;SDS011;1911;53.768;11.474;2024-03-23T01:11:12;20.27;;;4.50;;
3791;SDS011;1911;53.768;11.474;2024-03-23T01:13:37;15.50;;;4.27;;
3791;SDS011;1911;53.768;11.474;2024-03-23T01:16:03;12.50;;;4.07;;
3791;SDS011;1911;53.768;11.474;2024-03-23T01:18:29;13.33;;;4.63;;
3791;SDS011;1911;53.768;11.474;2024-03-23T01:20:54;31.00;;;5.73;;
3791;SDS011;1911;53.768;11.474;2024-03-23T01:23:20;20.23;;;4.20;;
3791;SDS011;1911;53.768;11.474;2024-03-23T01:25:55;18.70;;;3.90;;
3791;SDS011;1911;53.768;11.474;2024-03-23T01:28:21;17.60;;;4.07;;
3791;SDS011;1911;53.768;11.474;2024-03-23T01:30:47;19.83;;;4.40;;
3791;SDS011;1911;53.768;11.474;2024-03-23T01:33:13;25.03;;;4.17;;
3791;SDS011;1911;53.768;11.474;2024-03-23T01:35:39;26.13;;;5.63;;
3791;SDS011;1911;53.768;11.474;2024-03-23T01:38:04;20.67;;;5.20;;
3791;SDS011;1911;53.768;11.474;2024-03-23T01:40:30;12.83;;;3.87;;
3791;SDS011;1911;53.768;11.474;2024-03-23T01:42:58;13.40;;;3.73;;
3791;SDS011;1911;53.768;11.474;2024-03-23T01:45:27;30.60;;;6.03;;
3791;SDS011;1911;53.768;11.474;2024-03-23T01:47:52;32.97;;;5.17;;
3791;SDS011;1911;53.768;11.474;2024-03-23T01:50:19;14.70;;;4.03;;
3791;SDS011;1911;53.768;11.474;2024-03-23T01:52:45;14.50;;;4.53;;
3791;SDS011;1911;53.768;11.474;2024-03-23T01:55:11;18.70;;;5.00;;
3791;SDS011;1911;53.768;11.474;2024-03-23T01:57:40;18.17;;;4.33;;
3791;SDS011;1911;53.768;11.474;2024-03-23T02:00:06;23.03;;;3.90;;
3791;SDS011;1911;53.768;11.474;2024-03-23T02:02:40;25.30;;;4.53;;
3791;SDS011;1911;53.768;11.474;2024-03-23T02:05:14;21.83;;;6.07;;
3791;SDS011;1911;53.768;11.474;2024-03-23T02:07:42;20.17;;;4.40;;
3791;SDS011;1911;53.768;11.474;2024-03-23T02:10:09;24.50;;;5.30;;
3791;SDS011;1911;53.768;11.474;2024-03-23T02:12:35;17.23;;;3.57;;
3791;SDS011;1911;53.768;11.474;2024-03-23T02:15:02;18.47;;;4.53;;
3791;SDS011;1911;53.768;11.474;2024-03-23T02:17:29;11.87;;;3.20;;
3791;SDS011;1911;53.768;11.474;2024-03-23T02:19:56;15.93;;;3.53;;
3791;SDS011;1911;53.768;11.474;2024-03-23T02:22:21;25.10;;;5.27;;
3791;SDS011;1911;53.768;11.474;2024-03-23T02:24:47;27.83;;;5.20;;
3791;SDS011;1911;53.768;11.474;2024-03-23T02:27:13;27.03;;;6.00;;
3791;SDS011;1911;53.768;11.474;2024-03-23T02:29:38;18.97;;;4.97;;
3791;SDS011;1911;53.768;11.474;2024-03-23T02:32:04;21.67;;;4.90;;
3791;SDS011;1911;53.768;11.474;2024-03-23T02:34:30;17.00;;;3.63;;
3791;SDS011;1911;53.768;11.474;2024-03-23T02:36:55;29.40;;;4.63;;
3791;SDS011;1911;53.768;11.474;2024-03-23T02:39:21;21.20;;;4.40;;
3791;SDS011;1911;53.768;11.474;2024-03-23T02:41:47;13.23;;;3.43;;
3791;SDS011;1911;53.768;11.474;2024-03-23T02:44:13;19.20;;;4.00;;
3791;SDS011;1911;53.768;11.474;2024-03-23T02:46:39;18.00;;;2.93;;
3791;SDS011;1911;53.768;11.474;2024-03-23T02:49:05;25.83;;;5.17;;
3791;SDS011;1911;53.768;11.474;2024-03-23T02:51:31;21.00;;;4.53;;
3791;SDS011;1911;53.768;11.474;2024-03-23T02:53:57;21.03;;;4.00;;
3791;SDS011;1911;53.768;11.474;2024-03-23T02:56:23;24.70;;;4.43;;
3791;SDS011;1911;53.768;11.474;2024-03-23T02:58:48;18.40;;;4.40;;
3791;SDS011;1911;53.768;11.474;2024-03-23T03:01:14;18.57;;;4.27;;
3791;SDS011;1911;53.768;11.474;2024-03-23T03:03:39;22.17;;;4.20;;
3791;SDS011;1911;53.768;11.474;2024-03-23T03:06:05;22.47;;;4.63;;
3791;SDS011;1911;53.768;11.474;2024-03-23T03:08:31;29.00;;;7.53;;
3791;SDS011;1911;53.768;11.474;2024-03-23T03:10:56;19.60;;;3.70;;
3791;SDS011;1911;53.768;11.474;2024-03-23T03:13:22;17.50;;;4.80;;
3791;SDS011;1911;53.768;11.474;2024-03-23T03:15:47;23.60;;;4.70;;
3791;SDS011;1911;53.768;11.474;2024-03-23T03:18:13;19.50;;;4.03;;
3791;SDS011;1911;53.768;11.474;2024-03-23T03:20:39;21.00;;;4.83;;
3791;SDS011;1911;53.768;11.474;2024-03-23T03:23:05;24.97;;;4.30;;
3791;SDS011;1911;53.768;11.474;2024-03-23T03:25:31;18.27;;;4.20;;
3791;SDS011;1911;53.768;11.474;2024-03-23T03:27:57;16.00;;;3.80;;
3791;SDS011;1911;53.768;11.474;2024-03-23T03:30:22;19.13;;;4.17;;
3791;SDS011;1911;53.768;11.474;2024-03-23T03:32:49;16.33;;;4.37;;
3791;SDS011;1911;53.768;11.474;2024-03-23T03:35:14;21.10;;;3.60;;
3791;SDS011;1911;53.768;11.474;2024-03-23T03:37:40;17.13;;;3.43;;
3791;SDS011;1911;53.768;11.474;2024-03-23T03:40:06;14.03;;;4.13;;
3791;SDS011;1911;53.768;11.474;2024-03-23T03:42:33;24.80;;;4.63;;
3791;SDS011;1911;53.768;11.474;2024-03-23T03:44:59;14.90;;;3.90;;
3791;SDS011;1911;53.768;11.474;2024-03-23T03:47:25;16.93;;;4.03;;
3791;SDS011;1911;53.768;11.474;2024-03-23T03:49:50;26.30;;;4.00;;
3791;SDS011;1911;53.768;11.474;2024-03-23T03:52:16;19.43;;;4.10;;
3791;SDS011;1911;53.768;11.474;2024-03-23T03:54:41;20.10;;;4.33;;
3791;SDS011;1911;53.768;11.474;2024-03-23T03:57:07;11.63;;;3.47;;
3791;SDS011;1911;53.768;11.474;2024-03-23T03:59:33;26.60;;;4.37;;
3791;SDS011;1911;53.768;11.474;2024-03-23T04:01:58;15.00;;;4.33;;
3791;SDS011;1911;53.768;11.474;2024-03-23T04:04:24;11.63;;;4.00;;
3791;SDS011;1911;53.768;11.474;2024-03-23T04:06:49;15.90;;;4.50;;
3791;SDS011;1911;53.768;11.474;2024-03-23T04:09:15;19.53;;;4.87;;
3791;SDS011;1911;53.768;11.474;2024-03-23T04:11:40;19.70;;;3.50;;
3791;SDS011;1911;53.768;11.474;2024-03-23T04:14:06;20.77;;;4.10;;
3791;SDS011;1911;53.768;11.474;2024-03-23T04:16:35;11.27;;;3.97;;
3791;SDS011;1911;53.768;11.474;2024-03-23T04:19:01;24.60;;;3.90;;
3791;SDS011;1911;53.768;11.474;2024-03-23T04:21:26;20.43;;;3.73;;
3791;SDS011;1911;53.768;11.474;2024-03-23T04:23:52;23.33;;;3.60;;
3791;SDS011;1911;53.768;11.474;2024-03-23T04:26:18;20.70;;;4.10;;
3791;SDS011;1911;53.768;11.474;2024-03-23T04:28:43;12.90;;;3.50;;
3791;SDS011;1911;53.768;11.474;2024-03-23T04:31:09;18.03;;;4.10;;
3791;SDS011;1911;53.768;11.474;2024-03-23T04:33:34;14.47;;;3.90;;
3791;SDS011;1911;53.768;11.474;2024-03-23T04:36:00;13.67;;;3.20;;
3791;SDS011;1911;53.768;11.474;2024-03-23T04:38:26;18.20;;;4.23;;
3791;SDS011;1911;53.768;11.474;2024-03-23T04:40:58;30.23;;;4.10;;
3791;SDS011;1911;53.768;11.474;2024-03-23T04:43:25;13.73;;;3.83;;
3791;SDS011;1911;53.768;11.474;2024-03-23T04:45:51;22.37;;;3.40;;
3791;SDS011;1911;53.768;11.474;2024-03-23T04:48:19;22.67;;;4.00;;
3791;SDS011;1911;53.768;11.474;2024-03-23T04:50:46;21.67;;;4.47;;
3791;SDS011;1911;53.768;11.474;2024-03-23T04:53:11;18.83;;;4.40;;
3791;SDS011;1911;53.768;11.474;2024-03-23T04:55:37;16.57;;;4.10;;
3791;SDS011;1911;53.768;11.474;2024-03-23T04:58:02;16.57;;;4.60;;
3791;SDS011;1911;53.768;11.474;2024-03-23T05:00:28;12.17;;;3.33;;
3791;SDS011;1911;53.768;11.474;2024-03-23T05:02:54;25.60;;;4.33;;
3791;SDS011;1911;53.768;11.474;2024-03-23T05:05:19;10.57;;;3.37;;
3791;SDS011;1911;53.768;11.474;2024-03-23T05:07:45;12.20;;;4.10;;
3791;SDS011;1911;53.768;11.474;2024-03-23T05:10:10;29.87;;;4.03;;
3791;SDS011;1911;53.768;11.474;2024-03-23T05:12:38;23.47;;;4.20;;
3791;SDS011;1911;53.768;11.474;2024-03-23T05:15:07;20.77;;;3.73;;
3791;SDS011;1911;53.768;11.474;2024-03-23T05:17:32;15.60;;;3.57;;
3791;SDS011;1911;53.768;11.474;2024-03-23T05:19:58;17.23;;;4.73;;
3791;SDS011;1911;53.768;11.474;2024-03-23T05:22:24;19.77;;;4.00;;
3791;SDS011;1911;53.768;11.474;2024-03-23T05:24:49;28.70;;;4.80;;
3791;SDS011;1911;53.768;11.474;2024-03-23T05:27:15;18.83;;;4.80;;
3791;SDS011;1911;53.768;11.474;2024-03-23T05:29:41;18.83;;;4.47;;
3791;SDS011;1911;53.768;11.474;2024-03-23T05:32:06;32.30;;;4.70;;
3791;SDS011;1911;53.768;11.474;2024-03-23T05:34:32;13.00;;;5.03;;
3791;SDS011;1911;53.768;11.474;2024-03-23T05:36:58;16.40;;;4.03;;
3791;SDS011;1911;53.768;11.474;2024-03-23T05:39:24;24.00;;;3.80;;
3791;SDS011;1911;53.768;11.474;2024-03-23T05:41:49;25.23;;;4.20;;
3791;SDS011;1911;53.768;11.474;2024-03-23T05:44:15;27.63;;;5.03;;
3791;SDS011;1911;53.768;11.474;2024-03-23T05:46:41;20.17;;;3.23;;
3791;SDS011;1911;53.768;11.474;2024-03-23T05:49:08;28.43;;;4.87;;
3791;SDS011;1911;53.768;11.474;2024-03-23T05:51:34;24.73;;;5.43;;
3791;SDS011;1911;53.768;11.474;2024-03-23T05:53:59;24.90;;;7.17;;
3791;SDS011;1911;53.768;11.474;2024-03-23T05:56:26;27.80;;;4.40;;
3791;SDS011;1911;53.768;11.474;2024-03-23T05:58:51;29.50;;;6.67;;
3791;SDS011;1911;53.768;11.474;2024-03-23T06:01:17;22.57;;;4.03;;
3791;SDS011;1911;53.768;11.474;2024-03-23T06:03:42;14.73;;;3.77;;
3791;SDS011;1911;53.768;11.474;2024-03-23T06:06:09;17.30;;;3.77;;
3791;SDS011;1911;53.768;11.474;2024-03-23T06:08:37;20.40;;;4.23;;
3791;SDS011;1911;53.768;11.474;2024-03-23T06:11:03;20.27;;;3.80;;
3791;SDS011;1911;53.768;11.474;2024-03-23T06:13:31;21.20;;;4.37;;
3791;SDS011;1911;53.768;11.474;2024-03-23T06:15:56;23.00;;;4.87;;
3791;SDS011;1911;53.768;11.474;2024-03-23T06:18:23;19.37;;;4.53;;
3791;SDS011;1911;53.768;11.474;2024-03-23T06:20:49;15.13;;;4.30;;
3791;SDS011;1911;53.768;11.474;2024-03-23T06:23:14;18.97;;;5.37;;
3791;SDS011;1911;53.768;11.474;2024-03-23T06:25:42;15.17;;;4.37;;
3791;SDS011;1911;53.768;11.474;2024-03-23T06:28:07;19.50;;;4.53;;
3791;SDS011;1911;53.768;11.474;2024-03-23T06:30:33;21.93;;;4.97;;
3791;SDS011;1911;53.768;11.474;2024-03-23T06:32:59;15.50;;;3.67;;
3791;SDS011;1911;53.768;11.474;2024-03-23T06:35:24;25.77;;;5.20;;
3791;SDS011;1911;53.768;11.474;2024-03-23T06:37:50;17.17;;;4.30;;
3791;SDS011;1911;53.768;11.474;2024-03-23T06:40:15;21.93;;;5.10;;
3791;SDS011;1911;53.768;11.474;2024-03-23T06:42:41;16.87;;;4.00;;
3791;SDS011;1911;53.768;11.474;2024-03-23T06:45:07;21.30;;;4.50;;
3791;SDS011;1911;53.768;11.474;2024-03-23T06:47:32;23.97;;;5.50;;
3791;SDS011;1911;53.768;11.474;2024-03-23T06:49:59;23.87;;;5.53;;
3791;SDS011;1911;53.768;11.474;2024-03-23T06:52:28;20.70;;;3.90;;
3791;SDS011;1911;53.768;11.474;2024-03-23T06:54:54;16.13;;;5.03;;
3791;SDS011;1911;53.768;11.474;2024-03-23T06:57:19;15.57;;;4.03;;
3791;SDS011;1911;53.768;11.474;2024-03-23T06:59:45;22.27;;;5.50;;
3791;SDS011;1911;53.768;11.474;2024-03-23T07:02:10;26.43;;;5.17;;
3791;SDS011;1911;53.768;11.474;2024-03-23T07:04:36;15.00;;;4.47;;
3791;SDS011;1911;53.768;11.474;2024-03-23T07:07:04;19.87;;;5.67;;
3791;SDS011;1911;53.768;11.474;2024-03-23T07:09:30;20.67;;;5.50;;
3791;SDS011;1911;53.768;11.474;2024-03-23T07:11:56;19.80;;;4.93;;
3791;SDS011;1911;53.768;11.474;2024-03-23T07:14:43;23.10;;;5.77;;
3791;SDS011;1911;53.768;11.474;2024-03-23T07:17:08;21.33;;;4.70;;
3791;SDS011;1911;53.768;11.474;2024-03-23T07:19:33;30.17;;;5.80;;
3791;SDS011;1911;53.768;11.474;2024-03-23T07:22:25;15.77;;;5.67;;
3791;SDS011;1911;53.768;11.474;2024-03-23T07:25:30;19.30;;;7.50;;
3791;SDS011;1911;53.768;11.474;2024-03-23T07:27:56;16.60;;;4.87;;
3791;SDS011;1911;53.768;11.474;2024-03-23T07:30:22;20.57;;;6.67;;
3791;SDS011;1911;53.768;11.474;2024-03-23T07:32:47;25.17;;;6.27;;
3791;SDS011;1911;53.768;11.474;2024-03-23T07:35:13;28.03;;;5.63;;
3791;SDS011;1911;53.768;11.474;2024-03-23T07:37:39;19.97;;;5.53;;
3791;SDS011;1911;53.768;11.474;2024-03-23T07:40:04;23.40;;;5.47;;
3791;SDS011;1911;53.768;11.474;2024-03-23T07:42:31;19.13;;;4.60;;
3791;SDS011;1911;53.768;11.474;2024-03-23T07:44:56;14.30;;;4.57;;
3791;SDS011;1911;53.768;11.474;2024-03-23T07:47:22;22.90;;;6.87;;
3791;SDS011;1911;53.768;11.474;2024-03-23T07:49:48;19.70;;;5.80;;
3791;SDS011;1911;53.768;11.474;2024-03-23T07:52:14;26.63;;;5.40;;
3791;SDS011;1911;53.768;11.474;2024-03-23T07:54:39;16.40;;;6.17;;
3791;SDS011;1911;53.768;11.474;2024-03-23T07:57:05;13.40;;;4.50;;
3791;SDS011;1911;53.768;11.474;2024-03-23T07:59:31;27.43;;;6.13;;
3791;SDS011;1911;53.768;11.474;2024-03-23T08:01:58;19.93;;;6.03;;
3791;SDS011;1911;53.768;11.474;2024-03-23T08:04:24;34.40;;;6.07;;
3791;SDS011;1911;53.768;11.474;2024-03-23T08:06:50;17.53;;;5.23;;
3791;SDS011;1911;53.768;11.474;2024-03-23T08:09:16;18.77;;;4.73;;
3791;SDS011;1911;53.768;11.474;2024-03-23T08:11:41;27.83;;;7.43;;
3791;SDS011;1911;53.768;11.474;2024-03-23T08:14:10;34.33;;;5.80;;
3791;SDS011;1911;53.768;11.474;2024-03-23T08:16:35;13.03;;;5.23;;
3791;SDS011;1911;53.768;11.474;2024-03-23T08:19:01;12.20;;;4.77;;
3791;SDS011;1911;53.768;11.474;2024-03-23T08:21:28;13.50;;;4.33;;
3791;SDS011;1911;53.768;11.474;2024-03-23T08:23:54;22.70;;;4.63;;
3791;SDS011;1911;53.768;11.474;2024-03-23T08:26:19;17.60;;;5.60;;
3791;SDS011;1911;53.768;11.474;2024-03-23T08:28:45;16.87;;;5.63;;
3791;SDS011;1911;53.768;11.474;2024-03-23T08:31:11;20.50;;;6.00;;
3791;SDS011;1911;53.768;11.474;2024-03-23T08:33:37;15.43;;;5.30;;
3791;SDS011;1911;53.768;11.474;2024-03-23T08:36:07;12.70;;;4.93;;
3791;SDS011;1911;53.768;11.474;2024-03-23T08:38:34;15.27;;;5.50;;
3791;SDS011;1911;53.768;11.474;2024-03-23T08:41:01;15.00;;;4.77;;
3791;SDS011;1911;53.768;11.474;2024-03-23T08:43:30;13.70;;;5.47;;
3791;SDS011;1911;53.768;11.474;2024-03-23T08:46:13;20.07;;;5.63;;
3791;SDS011;1911;53.768;11.474;2024-03-23T08:48:44;12.93;;;4.37;;
3791;SDS011;1911;53.768;11.474;2024-03-23T08:51:14;22.43;;;4.57;;
3791;SDS011;1911;53.768;11.474;2024-03-23T08:53:41;26.70;;;6.10;;
3791;SDS011;1911;53.768;11.474;2024-03-23T08:56:08;17.63;;;5.63;;
3791;SDS011;1911;53.768;11.474;2024-03-23T08:58:34;15.40;;;4.53;;
3791;SDS011;1911;53.768;11.474;2024-03-23T09:01:10;15.60;;;4.50;;
3791;SDS011;1911;53.768;11.474;2024-03-23T09:03:41;19.73;;;4.97;;
3791;SDS011;1911;53.768;11.474;2024-03-23T09:06:07;18.03;;;4.47;;
3791;SDS011;1911;53.768;11.474;2024-03-23T09:08:33;16.50;;;4.47;;
3791;SDS011;1911;53.768;11.474;2024-03-23T09:11:03;13.47;;;3.80;;
3791;SDS011;1911;53.768;11.474;2024-03-23T09:13:30;13.23;;;3.77;;
3791;SDS011;1911;53.768;11.474;2024-03-23T09:15:57;15.90;;;4.03;;
3791;SDS011;1911;53.768;11.474;2024-03-23T09:18:23;17.33;;;4.40;;
3791;SDS011;1911;53.768;11.474;2024-03-23T09:20:49;16.67;;;4.37;;
3791;SDS011;1911;53.768;11.474;2024-03-23T09:23:14;12.73;;;4.00;;
3791;SDS011;1911;53.768;11.474;2024-03-23T09:25:40;13.33;;;3.73;;
3791;SDS011;1911;53.768;11.474;2024-03-23T09:28:06;8.27;;;3.37;;
3791;SDS011;1911;53.768;11.474;2024-03-23T09:30:33;19.53;;;5.50;;
3791;SDS011;1911;53.768;11.474;2024-03-23T09:32:59;20.20;;;4.37;;
3791;SDS011;1911;53.768;11.474;2024-03-23T09:35:26;14.07;;;3.33;;
3791;SDS011;1911;53.768;11.474;2024-03-23T09:37:51;11.83;;;4.17;;
3791;SDS011;1911;53.768;11.474;2024-03-23T09:40:17;16.63;;;3.93;;
3791;SDS011;1911;53.768;11.474;2024-03-23T09:42:43;18.30;;;3.47;;
3791;SDS011;1911;53.768;11.474;2024-03-23T09:45:22;17.10;;;4.07;;
3791;SDS011;1911;53.768;11.474;2024-03-23T09:47:52;18.23;;;3.67;;
3791;SDS011;1911;53.768;11.474;2024-03-23T09:50:18;9.27;;;3.53;;
3791;SDS011;1911;53.768;11.474;2024-03-23T09:52:45;8.93;;;3.37;;
3791;SDS011;1911;53.768;11.474;2024-03-23T09:55:11;12.93;;;3.20;;
3791;SDS011;1911;53.768;11.474;2024-03-23T09:57:37;9.97;;;3.17;;
3791;SDS011;1911;53.768;11.474;2024-03-23T10:00:03;14.60;;;3.47;;
3791;SDS011;1911;53.768;11.474;2024-03-23T10:02:29;13.87;;;4.30;;
3791;SDS011;1911;53.768;11.474;2024-03-23T10:04:55;10.43;;;3.80;;
3791;SDS011;1911;53.768;11.474;2024-03-23T10:07:22;16.13;;;4.27;;
3791;SDS011;1911;53.768;11.474;2024-03-23T10:09:48;12.53;;;3.20;;
3791;SDS011;1911;53.768;11.474;2024-03-23T10:12:16;10.00;;;2.53;;
3791;SDS011;1911;53.768;11.474;2024-03-23T10:14:43;9.03;;;2.10;;
3791;SDS011;1911;53.768;11.474;2024-03-23T10:19:46;12.00;;;2.90;;
3791;SDS011;1911;53.768;11.474;2024-03-23T10:22:23;11.20;;;3.27;;
3791;SDS011;1911;53.768;11.474;2024-03-23T10:24:49;14.33;;;3.60;;
3791;SDS011;1911;53.768;11.474;2024-03-23T10:27:16;8.90;;;3.50;;
3791;SDS011;1911;53.768;11.474;2024-03-23T10:29:46;7.00;;;3.07;;
3791;SDS011;1911;53.768;11.474;2024-03-23T10:32:13;4.83;;;2.30;;
3791;SDS011;1911;53.768;11.474;2024-03-23T10:34:40;13.73;;;3.00;;
3791;SDS011;1911;53.768;11.474;2024-03-23T10:37:06;9.93;;;2.90;;
3791;SDS011;1911;53.768;11.474;2024-03-23T10:39:33;10.00;;;3.10;;
3791;SDS011;1911;53.768;11.474;2024-03-23T10:42:00;10.67;;;3.33;;
3791;SDS011;1911;53.768;11.474;2024-03-23T10:44:36;13.63;;;3.10;;
3791;SDS011;1911;53.768;11.474;2024-03-23T10:47:02;3.50;;;1.87;;
3791;SDS011;1911;53.768;11.474;2024-03-23T10:49:30;10.90;;;2.43;;
3791;SDS011;1911;53.768;11.474;2024-03-23T10:51:57;9.80;;;2.20;;
3791;SDS011;1911;53.768;11.474;2024-03-23T10:54:24;8.60;;;2.13;;
3791;SDS011;1911;53.768;11.474;2024-03-23T10:56:51;5.97;;;2.00;;
3791;SDS011;1911;53.768;11.474;2024-03-23T10:59:22;5.50;;;2.50;;
3791;SDS011;1911;53.768;11.474;2024-03-23T11:04:31;9.03;;;3.30;;
3791;SDS011;1911;53.768;11.474;2024-03-23T11:07:03;7.33;;;2.73;;
3791;SDS011;1911;53.768;11.474;2024-03-23T11:09:48;8.30;;;4.20;;
3791;SDS011;1911;53.768;11.474;2024-03-23T11:14:50;11.63;;;3.07;;
3791;SDS011;1911;53.768;11.474;2024-03-23T11:17:29;10.10;;;2.80;;
3791;SDS011;1911;53.768;11.474;2024-03-23T11:19:58;6.87;;;2.13;;
3791;SDS011;1911;53.768;11.474;2024-03-23T11:22:46;10.13;;;2.10;;
3791;SDS011;1911;53.768;11.474;2024-03-23T11:27:45;5.93;;;2.33;;
3791;SDS011;1911;53.768;11.474;2024-03-23T11:30:21;12.33;;;2.07;;
3791;SDS011;1911;53.768;11.474;2024-03-23T11:32:51;9.77;;;2.87;;
3791;SDS011;1911;53.768;11.474;2024-03-23T11:35:31;3.53;;;1.33;;
3791;SDS011;1911;53.768;11.474;2024-03-23T11:38:10;2.63;;;1.33;;
3791;SDS011;1911;53.768;11.474;2024-03-23T11:40:43;10.87;;;1.80;;
3791;SDS011;1911;53.768;11.474;2024-03-23T11:43:12;7.30;;;1.90;;
3791;SDS011;1911;53.768;11.474;2024-03-23T11:48:07;7.80;;;2.00;;
3791;SDS011;1911;53.768;11.474;2024-03-23T11:50:34;4.30;;;1.57;;
3791;SDS011;1911;53.768;11.474;2024-03-23T11:53:23;4.73;;;1.50;;
3791;SDS011;1911;53.768;11.474;2024-03-23T11:58:18;9.20;;;1.90;;
3791;SDS011;1911;53.768;11.474;2024-03-23T12:00:58;8.33;;;2.30;;
3791;SDS011;1911;53.768;11.474;2024-03-23T12:03:27;10.40;;;2.33;;
3791;SDS011;1911;53.768;11.474;2024-03-23T12:05:59;9.93;;;2.20;;
3791;SDS011;1911;53.768;11.474;2024-03-23T12:08:30;6.80;;;1.87;;
3791;SDS011;1911;53.768;11.474;2024-03-23T12:13:51;13.80;;;2.20;;
3791;SDS011;1911;53.768;11.474;2024-03-23T12:16:18;7.80;;;2.30;;
3791;SDS011;1911;53.768;11.474;2024-03-23T12:18:48;5.20;;;1.73;;
3791;SDS011;1911;53.768;11.474;2024-03-23T12:21:14;7.40;;;3.23;;
3791;SDS011;1911;53.768;11.474;2024-03-23T12:23:41;12.87;;;3.27;;
3791;SDS011;1911;53.768;11.474;2024-03-23T12:26:09;10.60;;;2.63;;
3791;SDS011;1911;53.768;11.474;2024-03-23T12:28:35;4.23;;;1.60;;
3791;SDS011;1911;53.768;11.474;2024-03-23T12:31:02;5.90;;;1.30;;
3791;SDS011;1911;53.768;11.474;2024-03-23T12:33:28;4.23;;;1.50;;
3791;SDS011;1911;53.768;11.474;2024-03-23T12:35:53;8.20;;;1.90;;
3791;SDS011;1911;53.768;11.474;2024-03-23T12:38:19;9.20;;;2.70;;
3791;SDS011;1911;53.768;11.474;2024-03-23T12:40:51;8.43;;;1.77;;
3791;SDS011;1911;53.768;11.474;2024-03-23T12:43:17;5.03;;;1.27;;
3791;SDS011;1911;53.768;11.474;2024-03-23T12:45:46;2.20;;;0.90;;
3791;SDS011;1911;53.768;11.474;2024-03-23T12:48:12;3.90;;;1.00;;
3791;SDS011;1911;53.768;11.474;2024-03-23T12:50:37;3.20;;;0.83;;
3791;SDS011;1911;53.768;11.474;2024-03-23T12:53:03;2.77;;;1.10;;
3791;SDS011;1911;53.768;11.474;2024-03-23T12:55:29;1.30;;;0.80;;
3791;SDS011;1911;53.768;11.474;2024-03-23T12:57:54;5.03;;;1.43;;
3791;SDS011;1911;53.768;11.474;2024-03-23T13:00:20;1.57;;;0.70;;
3791;SDS011;1911;53.768;11.474;2024-03-23T13:02:45;4.50;;;1.13;;
3791;SDS011;1911;53.768;11.474;2024-03-23T13:05:11;4.03;;;1.70;;
3791;SDS011;1911;53.768;11.474;2024-03-23T13:07:37;5.53;;;1.10;;
3791;SDS011;1911;53.768;11.474;2024-03-23T13:10:03;3.57;;;1.30;;
3791;SDS011;1911;53.768;11.474;2024-03-23T13:12:30;5.70;;;1.43;;
3791;SDS011;1911;53.768;11.474;2024-03-23T13:14:56;5.20;;;1.80;;
3791;SDS011;1911;53.768;11.474;2024-03-23T13:17:21;4.10;;;1.60;;
3791;SDS011;1911;53.768;11.474;2024-03-23T13:19:47;5.17;;;1.83;;
3791;SDS011;1911;53.768;11.474;2024-03-23T13:22:12;5.47;;;1.27;;
3791;SDS011;1911;53.768;11.474;2024-03-23T13:24:38;4.93;;;1.40;;
3791;SDS011;1911;53.768;11.474;2024-03-23T13:27:04;3.73;;;1.63;;
3791;SDS011;1911;53.768;11.474;2024-03-23T13:29:33;7.47;;;1.80;;
3791;SDS011;1911;53.768;11.474;2024-03-23T13:32:00;1.87;;;1.43;;
3791;SDS011;1911;53.768;11.474;2024-03-23T13:34:25;1.60;;;0.80;;
3791;SDS011;1911;53.768;11.474;2024-03-23T13:36:51;1.83;;;0.70;;
3791;SDS011;1911;53.768;11.474;2024-03-23T13:39:17;2.07;;;1.10;;
3791;SDS011;1911;53.768;11.474;2024-03-23T13:41:44;1.57;;;0.87;;
3791;SDS011;1911;53.768;11.474;2024-03-23T13:44:13;1.20;;;0.77;;
3791;SDS011;1911;53.768;11.474;2024-03-23T13:46:42;2.20;;;0.80;;
3791;SDS011;1911;53.768;11.474;2024-03-23T13:49:09;1.63;;;0.80;;
3791;SDS011;1911;53.768;11.474;2024-03-23T13:51:50;6.00;;;1.13;;
3791;SDS011;1911;53.768;11.474;2024-03-23T13:54:15;3.63;;;1.30;;
3791;SDS011;1911;53.768;11.474;2024-03-23T13:56:41;2.93;;;1.53;;
3791;SDS011;1911;53.768;11.474;2024-03-23T13:59:06;1.10;;;0.80;;
3791;SDS011;1911;53.768;11.474;2024-03-23T14:01:32;5.93;;;1.40;;
3791;SDS011;1911;53.768;11.474;2024-03-23T14:03:58;4.10;;;1.37;;
3791;SDS011;1911;53.768;11.474;2024-03-23T14:06:23;1.53;;;1.00;;
3791;SDS011;1911;53.768;11.474;2024-03-23T14:08:49;1.70;;;1.00;;
3791;SDS011;1911;53.768;11.474;2024-03-23T14:11:15;7.80;;;1.20;;
3791;SDS011;1911;53.768;11.474;2024-03-23T14:13:43;1.03;;;0.70;;
3791;SDS011;1911;53.768;11.474;2024-03-23T14:16:09;2.10;;;0.93;;
3791;SDS011;1911;53.768;11.474;2024-03-23T14:18:35;1.00;;;0.60;;
3791;SDS011;1911;53.768;11.474;2024-03-23T14:21:02;2.83;;;0.77;;
3791;SDS011;1911;53.768;11.474;2024-03-23T14:23:29;3.93;;;0.90;;
3791;SDS011;1911;53.768;11.474;2024-03-23T14:25:58;6.00;;;0.90;;
3791;SDS011;1911;53.768;11.474;2024-03-23T14:28:23;4.60;;;1.00;;
3791;SDS011;1911;53.768;11.474;2024-03-23T14:30:49;2.20;;;0.80;;
3791;SDS011;1911;53.768;11.474;2024-03-23T14:33:16;6.03;;;1.50;;
3791;SDS011;1911;53.768;11.474;2024-03-23T14:35:43;6.60;;;1.10;;
3791;SDS011;1911;53.768;11.474;2024-03-23T14:38:16;1.50;;;0.80;;
3791;SDS011;1911;53.768;11.474;2024-03-23T14:40:42;3.50;;;2.00;;
3791;SDS011;1911;53.768;11.474;2024-03-23T14:43:07;4.80;;;1.37;;
3791;SDS011;1911;53.768;11.474;2024-03-23T14:45:33;6.53;;;2.07;;
3791;SDS011;1911;53.768;11.474;2024-03-23T14:47:58;2.90;;;1.23;;
3791;SDS011;1911;53.768;11.474;2024-03-23T14:50:25;1.77;;;0.87;;
3791;SDS011;1911;53.768;11.474;2024-03-23T14:52:51;3.00;;;1.10;;
3791;SDS011;1911;53.768;11.474;2024-03-23T14:55:16;2.23;;;0.80;;
3791;SDS011;1911;53.768;11.474;2024-03-23T14:57:42;1.53;;;1.13;;
3791;SDS011;1911;53.768;11.474;2024-03-23T15:00:09;4.77;;;1.17;;
3791;SDS011;1911;53.768;11.474;2024-03-23T15:02:38;3.00;;;0.80;;
3791;SDS011;1911;53.768;11.474;2024-03-23T15:05:04;3.67;;;1.30;;
3791;SDS011;1911;53.768;11.474;2024-03-23T15:07:32;2.10;;;1.03;;
3791;SDS011;1911;53.768;11.474;2024-03-23T15:09:57;5.17;;;2.30;;
3791;SDS011;1911;53.768;11.474;2024-03-23T15:12:23;7.57;;;1.80;;
3791;SDS011;1911;53.768;11.474;2024-03-23T15:14:49;3.83;;;1.23;;
3791;SDS011;1911;53.768;11.474;2024-03-23T15:17:14;3.57;;;1.17;;
3791;SDS011;1911;53.768;11.474;2024-03-23T15:19:40;7.80;;;1.70;;
3791;SDS011;1911;53.768;11.474;2024-03-23T15:22:07;2.87;;;1.27;;
3791;SDS011;1911;53.768;11.474;2024-03-23T15:24:34;3.37;;;1.30;;
3791;SDS011;1911;53.768;11.474;2024-03-23T15:27:00;1.90;;;0.60;;
3791;SDS011;1911;53.768;11.474;2024-03-23T15:29:27;1.77;;;0.70;;
3791;SDS011;1911;53.768;11.474;2024-03-23T15:31:52;2.17;;;0.60;;
3791;SDS011;1911;53.768;11.474;2024-03-23T15:34:18;3.67;;;1.10;;
3791;SDS011;1911;53.768;11.474;2024-03-23T15:36:46;2.80;;;1.07;;
3791;SDS011;1911;53.768;11.474;2024-03-23T15:39:14;2.17;;;0.70;;
3791;SDS011;1911;53.768;11.474;2024-03-23T15:41:40;2.50;;;0.83;;
3791;SDS011;1911;53.768;11.474;2024-03-23T15:44:05;3.23;;;1.50;;
3791;SDS011;1911;53.768;11.474;2024-03-23T15:46:31;2.70;;;1.43;;
3791;SDS011;1911;53.768;11.474;2024-03-23T15:48:57;2.70;;;1.00;;
3791;SDS011;1911;53.768;11.474;2024-03-23T15:51:22;2.37;;;1.10;;
3791;SDS011;1911;53.768;11.474;2024-03-23T15:53:48;3.53;;;1.10;;
3791;SDS011;1911;53.768;11.474;2024-03-23T15:56:17;3.27;;;1.30;;
3791;SDS011;1911;53.768;11.474;2024-03-23T15:58:43;1.73;;;0.90;;
3791;SDS011;1911;53.768;11.474;2024-03-23T16:01:09;7.10;;;2.00;;
3791;SDS011;1911;53.768;11.474;2024-03-23T16:03:35;3.53;;;1.00;;